createdAt,value
2023-07-21T00:01:58.000Z,25.30
2023-07-21T00:06:59.828Z,25.10
2023-07-21T00:12:01.665Z,25.10
2023-07-21T00:17:06.292Z,24.90
2023-07-21T00:22:09.035Z,24.90
2023-07-21T00:27:12.488Z,24.90
2023-07-21T00:32:19.220Z,24.70
2023-07-21T00:37:21.191Z,24.70
2023-07-21T00:42:23.093Z,24.60
2023-07-21T00:47:25.764Z,24.50
2023-07-21T00:52:28.506Z,24.30
2023-07-21T00:57:31.727Z,24.20
2023-07-21T01:02:34.644Z,24.20
2023-07-21T01:07:38.772Z,23.90
2023-07-21T01:12:41.203Z,23.60
2023-07-21T01:17:43.948Z,23.30
2023-07-21T01:22:51.914Z,23.30
2023-07-21T01:27:58.341Z,23.30
2023-07-21T01:33:02.370Z,23.40
2023-07-21T01:38:05.168Z,23.40
2023-07-21T01:43:08.575Z,23.40
2023-07-21T01:48:11.342Z,23.40
2023-07-21T01:53:20.945Z,23.50
2023-07-21T01:58:23.338Z,23.60
2023-07-21T02:03:26.357Z,23.70
2023-07-21T02:08:28.266Z,23.50
2023-07-21T02:13:30.318Z,23.30
2023-07-21T02:18:36.598Z,23.10
2023-07-21T02:23:38.544Z,23.00
2023-07-21T02:28:40.391Z,22.90
2023-07-21T02:33:42.221Z,22.80
2023-07-21T02:38:44.198Z,22.70
2023-07-21T02:43:46.041Z,22.60
2023-07-21T02:48:47.881Z,22.50
2023-07-21T02:53:50.500Z,22.60
2023-07-21T02:58:53.318Z,22.50
2023-07-21T03:03:56.960Z,22.30
2023-07-21T03:08:59.345Z,22.00
2023-07-21T03:14:04.608Z,21.90
2023-07-21T03:19:08.815Z,21.70
2023-07-21T03:24:11.014Z,21.50
2023-07-21T03:29:13.463Z,21.40
2023-07-21T03:34:21.782Z,21.40
2023-07-21T03:39:24.501Z,21.30
2023-07-21T03:44:26.740Z,21.30
2023-07-21T03:49:29.013Z,21.10
2023-07-21T03:54:38.413Z,21.00
2023-07-21T03:59:42.663Z,20.90
2023-07-21T04:04:46.477Z,20.90
2023-07-21T04:09:48.607Z,20.80
2023-07-21T04:14:50.615Z,20.80
2023-07-21T04:19:52.482Z,20.80
2023-07-21T04:24:54.342Z,20.70
2023-07-21T04:30:00.515Z,20.70
2023-07-21T04:35:05.311Z,20.70
2023-07-21T04:40:09.824Z,20.60
2023-07-21T04:45:13.962Z,20.50
2023-07-21T04:50:22.619Z,20.40
2023-07-21T04:55:24.520Z,20.20
2023-07-21T05:00:28.769Z,20.20
2023-07-21T05:05:31.351Z,20.20
2023-07-21T05:10:33.900Z,20.30
2023-07-21T05:15:36.719Z,20.20
2023-07-21T05:21:01.438Z,20.20
2023-07-21T05:26:18.372Z,20.30
2023-07-21T05:31:21.196Z,20.50
2023-07-21T05:36:35.870Z,20.70
2023-07-21T05:41:37.868Z,20.90
2023-07-21T05:46:42.008Z,21.00
2023-07-21T05:51:45.436Z,21.20
2023-07-21T05:56:55.720Z,21.20
2023-07-21T06:02:10.053Z,21.30
2023-07-21T06:07:12.524Z,21.40
2023-07-21T06:12:33.223Z,21.50
2023-07-21T06:17:50.759Z,21.50
2023-07-21T06:22:53.291Z,21.60
2023-07-21T06:27:56.008Z,21.60
2023-07-21T06:32:59.324Z,21.70
2023-07-21T06:38:10.582Z,21.90
2023-07-21T06:43:29.311Z,22.00
2023-07-21T06:48:55.156Z,22.10
2023-07-21T06:54:13.532Z,22.20
2023-07-21T06:59:15.498Z,22.30
2023-07-21T07:04:17.361Z,22.30
2023-07-21T07:09:19.633Z,22.30
2023-07-21T07:14:21.535Z,22.40
2023-07-21T07:19:23.386Z,22.40
2023-07-21T07:24:25.399Z,22.50
2023-07-21T07:29:28.186Z,22.60
2023-07-21T07:34:30.054Z,22.70
2023-07-21T07:39:31.944Z,22.90
2023-07-21T07:44:34.064Z,23.00
2023-07-21T07:49:36.608Z,23.10
2023-07-21T07:54:38.586Z,23.20
2023-07-21T07:59:40.825Z,23.40
2023-07-21T08:04:42.716Z,23.50
2023-07-21T08:09:44.752Z,23.70
2023-07-21T08:14:46.641Z,23.80
2023-07-21T08:19:48.571Z,23.90
2023-07-21T08:24:50.504Z,24.10
2023-07-21T08:29:52.450Z,24.10
2023-07-21T08:34:56.434Z,24.30
2023-07-21T08:39:59.152Z,24.40
2023-07-21T08:45:03.593Z,24.50
2023-07-21T08:50:05.849Z,24.70
2023-07-21T08:55:08.206Z,24.90
2023-07-21T09:00:11.816Z,25.10
2023-07-21T09:05:19.938Z,25.20
2023-07-21T09:10:32.383Z,25.30
2023-07-21T09:15:34.471Z,25.40
2023-07-21T09:20:36.400Z,25.60
2023-07-21T09:25:49.863Z,25.80
2023-07-21T09:30:54.957Z,25.90
2023-07-21T09:36:07.005Z,26.10
2023-07-21T09:41:17.179Z,26.40
2023-07-21T09:46:19.077Z,26.50
2023-07-21T09:51:21.814Z,26.70
2023-07-21T09:56:28.548Z,26.90
2023-07-21T10:01:31.977Z,27.10
2023-07-21T10:06:34.590Z,26.90
2023-07-21T10:11:36.593Z,26.80
2023-07-21T10:16:38.558Z,26.90
2023-07-21T10:22:14.715Z,27.00
2023-07-21T10:27:22.729Z,27.20
2023-07-21T10:32:25.903Z,27.20
2023-07-21T10:37:27.835Z,27.20
2023-07-21T10:42:29.831Z,27.20
2023-07-21T10:47:31.924Z,27.00
2023-07-21T10:52:34.309Z,26.70
2023-07-21T10:57:36.364Z,26.50
2023-07-21T11:02:41.231Z,26.50
2023-07-21T11:07:43.266Z,26.40
2023-07-21T11:12:51.823Z,26.40
2023-07-21T11:18:04.143Z,26.40
2023-07-21T11:23:06.395Z,26.20
2023-07-21T11:28:12.577Z,26.20
2023-07-21T11:33:14.482Z,26.20
2023-07-21T11:38:16.481Z,26.30
2023-07-21T11:43:18.401Z,26.50
2023-07-21T11:48:20.528Z,26.70
2023-07-21T11:53:24.305Z,26.90
2023-07-21T11:58:27.283Z,27.00
2023-07-21T12:03:30.087Z,27.00
2023-07-21T12:08:32.128Z,27.00
2023-07-21T12:13:35.079Z,27.10
2023-07-21T12:18:37.844Z,27.30
2023-07-21T12:23:39.769Z,27.40
2023-07-21T12:28:42.689Z,27.60
2023-07-21T12:33:49.386Z,27.80
2023-07-21T12:38:52.418Z,28.00
2023-07-21T12:43:54.281Z,28.00
2023-07-21T12:48:56.145Z,28.10
2023-07-21T12:53:58.026Z,28.10
2023-07-21T12:58:59.919Z,28.10
2023-07-21T13:04:02.025Z,28.20
2023-07-21T13:09:04.021Z,28.30
2023-07-21T13:14:05.924Z,28.40
2023-07-21T13:19:08.605Z,28.20
2023-07-21T13:24:10.679Z,28.00
2023-07-21T13:29:13.442Z,28.00
2023-07-21T13:34:16.149Z,27.90
2023-07-21T13:39:18.169Z,28.10
2023-07-21T13:44:20.065Z,28.20
2023-07-21T13:49:24.914Z,28.30
2023-07-21T13:54:26.998Z,28.30
2023-07-21T13:59:29.028Z,28.00
2023-07-21T14:04:31.183Z,27.50
2023-07-21T14:09:33.827Z,27.30
2023-07-21T14:14:35.785Z,27.10
2023-07-21T14:19:37.716Z,26.90
2023-07-21T14:24:39.710Z,26.80
2023-07-21T14:29:41.645Z,26.80
2023-07-21T14:34:43.506Z,26.80
2023-07-21T14:39:45.391Z,26.90
2023-07-21T14:44:47.591Z,26.90
2023-07-21T14:49:49.435Z,26.60
2023-07-21T14:54:51.306Z,26.50
2023-07-21T14:59:53.443Z,26.30
2023-07-21T15:04:55.301Z,26.00
2023-07-21T15:09:57.141Z,25.90
2023-07-21T15:14:59.077Z,25.80
2023-07-21T15:20:00.948Z,25.80
2023-07-21T15:25:05.151Z,25.70
2023-07-21T15:30:08.749Z,25.60
2023-07-21T15:35:10.842Z,25.40
2023-07-21T15:40:13.363Z,25.30
2023-07-21T15:45:16.402Z,25.40
2023-07-21T15:50:18.305Z,25.60
2023-07-21T15:55:20.292Z,25.80
2023-07-21T16:00:22.363Z,25.80
2023-07-21T16:05:24.339Z,25.70
2023-07-21T16:10:26.231Z,25.70
2023-07-21T16:15:28.784Z,25.70
2023-07-21T16:20:30.881Z,25.70
2023-07-21T16:25:33.843Z,25.70
2023-07-21T16:30:39.813Z,25.70
2023-07-21T16:35:41.860Z,25.80
2023-07-21T16:40:43.776Z,25.80
2023-07-21T16:45:46.019Z,25.90
2023-07-21T16:50:48.063Z,25.90
2023-07-21T16:55:50.028Z,26.00
2023-07-21T17:00:54.394Z,26.10
2023-07-21T17:05:56.292Z,26.20
2023-07-21T17:11:00.285Z,26.40
2023-07-21T17:16:02.337Z,26.50
2023-07-21T17:21:04.468Z,26.40
2023-07-21T17:26:07.302Z,26.40
2023-07-21T17:31:09.271Z,26.40
2023-07-21T17:36:11.278Z,26.30
2023-07-21T17:41:13.121Z,26.30
2023-07-21T17:46:18.248Z,26.40
2023-07-21T17:51:20.105Z,26.30
2023-07-21T17:56:22.686Z,26.30
2023-07-21T18:01:24.943Z,26.30
2023-07-21T18:06:30.562Z,26.20
2023-07-21T18:11:32.492Z,26.20
2023-07-21T18:16:34.428Z,26.20
2023-07-21T18:21:36.607Z,26.20
2023-07-21T18:26:38.476Z,26.10
2023-07-21T18:31:40.351Z,26.20
2023-07-21T18:36:44.700Z,26.20
2023-07-21T18:41:46.552Z,26.20
2023-07-21T18:46:48.535Z,26.20
2023-07-21T18:51:50.407Z,26.10
2023-07-21T18:56:52.287Z,26.10
2023-07-21T19:01:54.305Z,26.00
2023-07-21T19:06:56.156Z,25.90
2023-07-21T19:11:58.017Z,25.80
2023-07-21T19:16:59.929Z,25.70
2023-07-21T19:22:01.800Z,25.70
2023-07-21T19:27:04.082Z,25.70
2023-07-21T19:32:06.681Z,25.60
2023-07-21T19:37:08.491Z,25.60
2023-07-21T19:42:10.754Z,25.60
2023-07-21T19:47:12.670Z,25.70
2023-07-21T19:52:14.614Z,25.70
2023-07-21T19:57:16.601Z,25.60
2023-07-21T20:02:18.471Z,25.60
2023-07-21T20:07:20.298Z,25.50
2023-07-21T20:12:23.097Z,25.40
2023-07-21T20:17:24.985Z,25.20
2023-07-21T20:22:26.879Z,25.00
2023-07-21T20:27:28.714Z,24.80
2023-07-21T20:32:31.304Z,24.80
2023-07-21T20:37:33.235Z,24.70
2023-07-21T20:42:35.118Z,24.60
2023-07-21T20:47:37.080Z,24.60
2023-07-21T20:52:39.286Z,24.70
2023-07-21T20:57:41.153Z,24.80
2023-07-21T21:02:44.330Z,24.90
2023-07-21T21:07:47.181Z,25.00
2023-07-21T21:12:48.996Z,25.00
2023-07-21T21:17:50.863Z,25.00
2023-07-21T21:22:52.697Z,24.90
2023-07-21T21:27:54.586Z,24.80
2023-07-21T21:32:56.597Z,24.80
2023-07-21T21:37:58.468Z,24.60
2023-07-21T21:43:00.461Z,24.50
2023-07-21T21:48:02.331Z,24.50
2023-07-21T21:53:04.186Z,24.50
2023-07-21T21:58:06.004Z,24.50
2023-07-21T22:03:08.887Z,24.50
2023-07-21T22:08:10.837Z,24.50
2023-07-21T22:13:12.712Z,24.40
2023-07-21T22:18:14.582Z,24.40
2023-07-21T22:23:16.517Z,24.40
2023-07-21T22:28:22.399Z,24.30
2023-07-21T22:33:26.357Z,24.20
2023-07-21T22:38:28.184Z,24.10
2023-07-21T22:43:30.102Z,24.00
2023-07-21T22:48:32.026Z,24.00
2023-07-21T22:53:34.114Z,23.90
2023-07-21T22:58:37.140Z,23.80
2023-07-21T23:03:39.073Z,23.80
2023-07-21T23:08:41.009Z,23.80
2023-07-21T23:13:42.926Z,23.80
2023-07-21T23:18:44.773Z,23.80
2023-07-21T23:23:49.763Z,23.80
2023-07-21T23:28:51.608Z,23.80
2023-07-21T23:33:53.486Z,23.80
2023-07-21T23:38:56.222Z,23.80
2023-07-21T23:43:58.127Z,23.80
2023-07-21T23:49:00.086Z,23.80
2023-07-21T23:54:02.287Z,23.90
2023-07-21T23:59:04.206Z,23.90
